sensor_id;sensor_type;location;lat;lon;timestamp;P1;durP1;ratioP1;P2;durP2;ratioP2
53545;SDS011;39432;51.902;10.844;2023-02-01T00:01:51;17.23;;;2.00;;
53545;SDS011;39432;51.902;10.844;2023-02-01T00:04:23;15.20;;;2.47;;
53545;SDS011;39432;51.902;10.844;2023-02-01T00:06:53;9.88;;;1.75;;
53545;SDS011;39432;51.902;10.844;2023-02-01T00:09:22;8.68;;;2.10;;
53545;SDS011;39432;51.902;10.844;2023-02-01T00:11:52;14.35;;;2.60;;
53545;SDS011;39432;51.902;10.844;2023-02-01T00:14:25;15.10;;;2.40;;
53545;SDS011;39432;51.902;10.844;2023-02-01T00:16:55;11.63;;;1.80;;
53545;SDS011;39432;51.902;10.844;2023-02-01T00:19:27;10.70;;;2.30;;
53545;SDS011;39432;51.902;10.844;2023-02-01T00:21:57;11.07;;;2.13;;
53545;SDS011;39432;51.902;10.844;2023-02-01T00:24:26;14.13;;;2.70;;
53545;SDS011;39432;51.902;10.844;2023-02-01T00:26:56;15.30;;;2.58;;
53545;SDS011;39432;51.902;10.844;2023-02-01T00:29:26;15.70;;;2.10;;
53545;SDS011;39432;51.902;10.844;2023-02-01T00:31:55;15.48;;;2.85;;
53545;SDS011;39432;51.902;10.844;2023-02-01T00:34:27;13.52;;;2.17;;
53545;SDS011;39432;51.902;10.844;2023-02-01T00:36:57;13.75;;;2.03;;
53545;SDS011;39432;51.902;10.844;2023-02-01T00:39:27;14.57;;;2.15;;
53545;SDS011;39432;51.902;10.844;2023-02-01T00:41:56;11.55;;;2.03;;
53545;SDS011;39432;51.902;10.844;2023-02-01T00:44:26;12.90;;;1.50;;
53545;SDS011;39432;51.902;10.844;2023-02-01T00:46:59;10.70;;;1.95;;
53545;SDS011;39432;51.902;10.844;2023-02-01T00:49:32;13.00;;;2.30;;
53545;SDS011;39432;51.902;10.844;2023-02-01T00:52:02;12.65;;;2.17;;
53545;SDS011;39432;51.902;10.844;2023-02-01T00:54:32;12.00;;;2.20;;
53545;SDS011;39432;51.902;10.844;2023-02-01T00:57:03;10.05;;;2.35;;
53545;SDS011;39432;51.902;10.844;2023-02-01T00:59:32;12.73;;;2.10;;
53545;SDS011;39432;51.902;10.844;2023-02-01T01:02:02;13.95;;;2.47;;
53545;SDS011;39432;51.902;10.844;2023-02-01T01:04:34;12.70;;;2.60;;
53545;SDS011;39432;51.902;10.844;2023-02-01T01:07:04;11.48;;;2.00;;
53545;SDS011;39432;51.902;10.844;2023-02-01T01:09:33;17.17;;;2.35;;
53545;SDS011;39432;51.902;10.844;2023-02-01T01:12:03;13.90;;;2.60;;
53545;SDS011;39432;51.902;10.844;2023-02-01T01:14:33;18.08;;;3.38;;
53545;SDS011;39432;51.902;10.844;2023-02-01T01:17:03;13.32;;;2.03;;
53545;SDS011;39432;51.902;10.844;2023-02-01T01:19:35;17.63;;;2.42;;
53545;SDS011;39432;51.902;10.844;2023-02-01T01:22:05;14.60;;;2.38;;
53545;SDS011;39432;51.902;10.844;2023-02-01T01:24:34;10.45;;;2.35;;
53545;SDS011;39432;51.902;10.844;2023-02-01T01:27:04;13.60;;;2.15;;
53545;SDS011;39432;51.902;10.844;2023-02-01T01:29:34;10.93;;;2.03;;
53545;SDS011;39432;51.902;10.844;2023-02-01T01:32:03;12.55;;;2.03;;
53545;SDS011;39432;51.902;10.844;2023-02-01T01:34:35;18.17;;;2.33;;
53545;SDS011;39432;51.902;10.844;2023-02-01T01:37:05;12.77;;;2.28;;
53545;SDS011;39432;51.902;10.844;2023-02-01T01:39:35;13.88;;;2.67;;
53545;SDS011;39432;51.902;10.844;2023-02-01T01:42:05;18.23;;;2.85;;
53545;SDS011;39432;51.902;10.844;2023-02-01T01:47:28;15.05;;;2.25;;
53545;SDS011;39432;51.902;10.844;2023-02-01T01:50:04;14.68;;;2.28;;
53545;SDS011;39432;51.902;10.844;2023-02-01T01:52:38;10.38;;;2.30;;
53545;SDS011;39432;51.902;10.844;2023-02-01T01:55:10;9.13;;;2.17;;
53545;SDS011;39432;51.902;10.844;2023-02-01T01:57:42;16.70;;;2.35;;
53545;SDS011;39432;51.902;10.844;2023-02-01T02:00:15;10.52;;;2.22;;
53545;SDS011;39432;51.902;10.844;2023-02-01T02:02:53;18.95;;;2.80;;
53545;SDS011;39432;51.902;10.844;2023-02-01T02:05:29;12.50;;;2.05;;
53545;SDS011;39432;51.902;10.844;2023-02-01T02:07:59;13.05;;;2.30;;
53545;SDS011;39432;51.902;10.844;2023-02-01T02:10:29;13.93;;;2.42;;
53545;SDS011;39432;51.902;10.844;2023-02-01T02:13:12;10.43;;;1.90;;
53545;SDS011;39432;51.902;10.844;2023-02-01T02:15:45;15.48;;;2.78;;
53545;SDS011;39432;51.902;10.844;2023-02-01T02:18:27;13.52;;;2.05;;
53545;SDS011;39432;51.902;10.844;2023-02-01T02:21:13;12.95;;;2.25;;
53545;SDS011;39432;51.902;10.844;2023-02-01T02:27:03;13.93;;;2.72;;
53545;SDS011;39432;51.902;10.844;2023-02-01T02:35:45;15.25;;;2.78;;
53545;SDS011;39432;51.902;10.844;2023-02-01T02:38:24;22.50;;;2.85;;
53545;SDS011;39432;51.902;10.844;2023-02-01T02:41:05;13.77;;;2.72;;
53545;SDS011;39432;51.902;10.844;2023-02-01T02:44:04;14.80;;;3.00;;
53545;SDS011;39432;51.902;10.844;2023-02-01T02:46:53;13.48;;;2.47;;
53545;SDS011;39432;51.902;10.844;2023-02-01T02:49:46;11.85;;;2.75;;
53545;SDS011;39432;51.902;10.844;2023-02-01T02:52:33;19.67;;;2.75;;
53545;SDS011;39432;51.902;10.844;2023-02-01T02:55:21;19.15;;;2.67;;
53545;SDS011;39432;51.902;10.844;2023-02-01T02:57:52;11.13;;;2.17;;
53545;SDS011;39432;51.902;10.844;2023-02-01T03:00:36;13.75;;;2.30;;
53545;SDS011;39432;51.902;10.844;2023-02-01T03:03:20;12.18;;;2.00;;
53545;SDS011;39432;51.902;10.844;2023-02-01T03:06:07;10.85;;;2.00;;
53545;SDS011;39432;51.902;10.844;2023-02-01T03:08:42;10.55;;;1.88;;
53545;SDS011;39432;51.902;10.844;2023-02-01T03:11:13;12.95;;;2.33;;
53545;SDS011;39432;51.902;10.844;2023-02-01T03:13:44;16.27;;;2.42;;
53545;SDS011;39432;51.902;10.844;2023-02-01T03:16:17;14.20;;;2.50;;
53545;SDS011;39432;51.902;10.844;2023-02-01T03:18:54;14.93;;;2.95;;
53545;SDS011;39432;51.902;10.844;2023-02-01T03:21:32;13.82;;;2.50;;
53545;SDS011;39432;51.902;10.844;2023-02-01T03:24:08;14.68;;;2.63;;
53545;SDS011;39432;51.902;10.844;2023-02-01T03:26:43;12.45;;;2.40;;
53545;SDS011;39432;51.902;10.844;2023-02-01T03:29:21;14.95;;;2.53;;
53545;SDS011;39432;51.902;10.844;2023-02-01T03:31:55;9.80;;;1.90;;
53545;SDS011;39432;51.902;10.844;2023-02-01T03:34:25;14.25;;;2.60;;
53545;SDS011;39432;51.902;10.844;2023-02-01T03:36:59;16.20;;;2.47;;
53545;SDS011;39432;51.902;10.844;2023-02-01T03:39:32;12.88;;;2.75;;
53545;SDS011;39432;51.902;10.844;2023-02-01T03:42:07;10.90;;;2.22;;
53545;SDS011;39432;51.902;10.844;2023-02-01T03:44:43;11.40;;;2.03;;
53545;SDS011;39432;51.902;10.844;2023-02-01T03:47:20;12.90;;;2.30;;
53545;SDS011;39432;51.902;10.844;2023-02-01T03:49:53;13.02;;;2.55;;
53545;SDS011;39432;51.902;10.844;2023-02-01T03:52:30;14.40;;;2.58;;
53545;SDS011;39432;51.902;10.844;2023-02-01T03:55:05;14.27;;;2.50;;
53545;SDS011;39432;51.902;10.844;2023-02-01T03:57:39;15.93;;;2.72;;
53545;SDS011;39432;51.902;10.844;2023-02-01T04:00:15;13.10;;;2.65;;
53545;SDS011;39432;51.902;10.844;2023-02-01T04:02:49;14.98;;;2.58;;
53545;SDS011;39432;51.902;10.844;2023-02-01T04:05:19;9.43;;;2.10;;
53545;SDS011;39432;51.902;10.844;2023-02-01T04:07:58;16.02;;;2.50;;
53545;SDS011;39432;51.902;10.844;2023-02-01T04:10:28;19.98;;;2.72;;
53545;SDS011;39432;51.902;10.844;2023-02-01T04:12:57;10.57;;;2.20;;
53545;SDS011;39432;51.902;10.844;2023-02-01T04:15:27;14.63;;;2.60;;
53545;SDS011;39432;51.902;10.844;2023-02-01T04:17:56;6.75;;;2.20;;
53545;SDS011;39432;51.902;10.844;2023-02-01T04:20:26;9.82;;;2.65;;
53545;SDS011;39432;51.902;10.844;2023-02-01T04:22:58;12.18;;;2.85;;
53545;SDS011;39432;51.902;10.844;2023-02-01T04:25:29;15.65;;;2.45;;
53545;SDS011;39432;51.902;10.844;2023-02-01T04:27:58;14.90;;;2.55;;
53545;SDS011;39432;51.902;10.844;2023-02-01T04:30:28;11.93;;;2.17;;
53545;SDS011;39432;51.902;10.844;2023-02-01T04:32:58;14.40;;;2.50;;
53545;SDS011;39432;51.902;10.844;2023-02-01T04:35:30;11.40;;;2.63;;
53545;SDS011;39432;51.902;10.844;2023-02-01T04:38:02;13.23;;;2.67;;
53545;SDS011;39432;51.902;10.844;2023-02-01T04:40:32;10.85;;;2.55;;
53545;SDS011;39432;51.902;10.844;2023-02-01T04:43:04;11.15;;;2.42;;
53545;SDS011;39432;51.902;10.844;2023-02-01T04:45:34;14.65;;;2.88;;
53545;SDS011;39432;51.902;10.844;2023-02-01T04:48:04;16.25;;;2.63;;
53545;SDS011;39432;51.902;10.844;2023-02-01T04:50:34;14.43;;;2.28;;
53545;SDS011;39432;51.902;10.844;2023-02-01T04:53:06;10.00;;;2.30;;
53545;SDS011;39432;51.902;10.844;2023-02-01T04:55:35;12.20;;;2.88;;
53545;SDS011;39432;51.902;10.844;2023-02-01T04:58:05;11.57;;;2.85;;
53545;SDS011;39432;51.902;10.844;2023-02-01T05:00:34;10.07;;;2.35;;
53545;SDS011;39432;51.902;10.844;2023-02-01T05:03:04;13.73;;;3.05;;
53545;SDS011;39432;51.902;10.844;2023-02-01T05:05:34;12.48;;;2.35;;
53545;SDS011;39432;51.902;10.844;2023-02-01T05:08:06;8.15;;;2.03;;
53545;SDS011;39432;51.902;10.844;2023-02-01T05:10:36;8.90;;;2.30;;
53545;SDS011;39432;51.902;10.844;2023-02-01T05:13:05;7.53;;;1.83;;
53545;SDS011;39432;51.902;10.844;2023-02-01T05:15:47;14.63;;;2.97;;
53545;SDS011;39432;51.902;10.844;2023-02-01T05:18:19;10.55;;;2.13;;
53545;SDS011;39432;51.902;10.844;2023-02-01T05:20:48;7.22;;;2.50;;
53545;SDS011;39432;51.902;10.844;2023-02-01T05:23:20;8.93;;;2.78;;
53545;SDS011;39432;51.902;10.844;2023-02-01T05:25:50;11.30;;;2.53;;
53545;SDS011;39432;51.902;10.844;2023-02-01T05:28:20;12.05;;;2.42;;
53545;SDS011;39432;51.902;10.844;2023-02-01T05:30:49;10.88;;;2.30;;
53545;SDS011;39432;51.902;10.844;2023-02-01T05:33:19;13.18;;;2.53;;
53545;SDS011;39432;51.902;10.844;2023-02-01T05:35:48;8.70;;;2.10;;
53545;SDS011;39432;51.902;10.844;2023-02-01T05:38:21;9.63;;;2.70;;
53545;SDS011;39432;51.902;10.844;2023-02-01T05:40:50;13.57;;;2.35;;
53545;SDS011;39432;51.902;10.844;2023-02-01T05:43:20;13.80;;;2.50;;
53545;SDS011;39432;51.902;10.844;2023-02-01T05:45:51;13.73;;;2.67;;
53545;SDS011;39432;51.902;10.844;2023-02-01T05:48:21;11.10;;;2.97;;
53545;SDS011;39432;51.902;10.844;2023-02-01T05:50:51;8.40;;;2.35;;
53545;SDS011;39432;51.902;10.844;2023-02-01T05:53:23;15.95;;;2.70;;
53545;SDS011;39432;51.902;10.844;2023-02-01T05:55:53;10.50;;;3.00;;
53545;SDS011;39432;51.902;10.844;2023-02-01T05:58:22;11.85;;;2.53;;
53545;SDS011;39432;51.902;10.844;2023-02-01T06:00:52;9.40;;;2.00;;
53545;SDS011;39432;51.902;10.844;2023-02-01T06:03:22;9.93;;;1.90;;
53545;SDS011;39432;51.902;10.844;2023-02-01T06:05:51;10.90;;;2.72;;
53545;SDS011;39432;51.902;10.844;2023-02-01T06:08:23;8.50;;;2.10;;
53545;SDS011;39432;51.902;10.844;2023-02-01T06:10:57;8.40;;;2.05;;
53545;SDS011;39432;51.902;10.844;2023-02-01T06:13:27;8.85;;;2.03;;
53545;SDS011;39432;51.902;10.844;2023-02-01T06:16:00;8.27;;;2.08;;
53545;SDS011;39432;51.902;10.844;2023-02-01T06:18:31;10.77;;;2.15;;
53545;SDS011;39432;51.902;10.844;2023-02-01T06:21:00;7.65;;;2.13;;
53545;SDS011;39432;51.902;10.844;2023-02-01T06:23:33;7.78;;;2.10;;
53545;SDS011;39432;51.902;10.844;2023-02-01T06:26:03;10.57;;;2.42;;
53545;SDS011;39432;51.902;10.844;2023-02-01T06:28:34;6.00;;;2.08;;
53545;SDS011;39432;51.902;10.844;2023-02-01T06:31:05;5.93;;;1.80;;
53545;SDS011;39432;51.902;10.844;2023-02-01T06:33:36;7.85;;;1.88;;
53545;SDS011;39432;51.902;10.844;2023-02-01T06:36:07;6.10;;;1.55;;
53545;SDS011;39432;51.902;10.844;2023-02-01T06:38:42;6.50;;;1.88;;
53545;SDS011;39432;51.902;10.844;2023-02-01T06:41:11;5.72;;;1.73;;
53545;SDS011;39432;51.902;10.844;2023-02-01T06:43:41;5.80;;;1.45;;
53545;SDS011;39432;51.902;10.844;2023-02-01T06:46:12;7.22;;;1.88;;
53545;SDS011;39432;51.902;10.844;2023-02-01T06:48:42;7.90;;;1.40;;
53545;SDS011;39432;51.902;10.844;2023-02-01T06:51:19;5.97;;;1.30;;
53545;SDS011;39432;51.902;10.844;2023-02-01T06:53:52;8.75;;;1.70;;
53545;SDS011;39432;51.902;10.844;2023-02-01T06:56:22;5.90;;;1.60;;
53545;SDS011;39432;51.902;10.844;2023-02-01T06:58:52;6.47;;;1.30;;
53545;SDS011;39432;51.902;10.844;2023-02-01T07:01:22;7.35;;;1.70;;
53545;SDS011;39432;51.902;10.844;2023-02-01T07:03:51;5.85;;;1.60;;
53545;SDS011;39432;51.902;10.844;2023-02-01T07:06:21;4.10;;;1.20;;
53545;SDS011;39432;51.902;10.844;2023-02-01T07:08:53;3.78;;;1.17;;
53545;SDS011;39432;51.902;10.844;2023-02-01T07:11:23;3.40;;;0.88;;
53545;SDS011;39432;51.902;10.844;2023-02-01T07:13:54;4.35;;;1.20;;
53545;SDS011;39432;51.902;10.844;2023-02-01T07:16:24;6.53;;;1.15;;
53545;SDS011;39432;51.902;10.844;2023-02-01T07:18:53;5.43;;;1.10;;
53545;SDS011;39432;51.902;10.844;2023-02-01T07:21:23;3.03;;;0.77;;
53545;SDS011;39432;51.902;10.844;2023-02-01T07:23:57;2.25;;;0.90;;
53545;SDS011;39432;51.902;10.844;2023-02-01T07:26:27;5.75;;;1.13;;
53545;SDS011;39432;51.902;10.844;2023-02-01T07:28:57;3.08;;;0.90;;
53545;SDS011;39432;51.902;10.844;2023-02-01T07:31:27;2.28;;;1.00;;
53545;SDS011;39432;51.902;10.844;2023-02-01T07:33:56;3.92;;;1.10;;
53545;SDS011;39432;51.902;10.844;2023-02-01T07:36:27;2.10;;;0.95;;
53545;SDS011;39432;51.902;10.844;2023-02-01T07:38:59;2.47;;;0.85;;
53545;SDS011;39432;51.902;10.844;2023-02-01T07:41:29;2.60;;;0.70;;
53545;SDS011;39432;51.902;10.844;2023-02-01T07:43:58;4.13;;;1.08;;
53545;SDS011;39432;51.902;10.844;2023-02-01T07:46:28;2.38;;;0.75;;
53545;SDS011;39432;51.902;10.844;2023-02-01T07:48:57;5.25;;;1.13;;
53545;SDS011;39432;51.902;10.844;2023-02-01T07:51:27;4.45;;;1.00;;
53545;SDS011;39432;51.902;10.844;2023-02-01T07:53:59;4.15;;;1.13;;
53545;SDS011;39432;51.902;10.844;2023-02-01T07:56:29;5.90;;;1.20;;
53545;SDS011;39432;51.902;10.844;2023-02-01T07:58:58;4.50;;;1.10;;
53545;SDS011;39432;51.902;10.844;2023-02-01T08:01:28;3.33;;;1.42;;
53545;SDS011;39432;51.902;10.844;2023-02-01T08:03:58;6.90;;;1.40;;
53545;SDS011;39432;51.902;10.844;2023-02-01T08:06:30;6.15;;;1.63;;
53545;SDS011;39432;51.902;10.844;2023-02-01T08:09:04;6.13;;;1.30;;
53545;SDS011;39432;51.902;10.844;2023-02-01T08:11:34;5.57;;;1.73;;
53545;SDS011;39432;51.902;10.844;2023-02-01T08:14:04;5.95;;;1.30;;
53545;SDS011;39432;51.902;10.844;2023-02-01T08:16:34;5.10;;;1.40;;
53545;SDS011;39432;51.902;10.844;2023-02-01T08:19:05;6.47;;;1.95;;
53545;SDS011;39432;51.902;10.844;2023-02-01T08:21:35;5.47;;;1.30;;
53545;SDS011;39432;51.902;10.844;2023-02-01T08:24:10;4.60;;;1.30;;
53545;SDS011;39432;51.902;10.844;2023-02-01T08:26:39;5.38;;;1.45;;
53545;SDS011;39432;51.902;10.844;2023-02-01T08:29:09;4.45;;;1.25;;
53545;SDS011;39432;51.902;10.844;2023-02-01T08:31:40;6.00;;;1.40;;
53545;SDS011;39432;51.902;10.844;2023-02-01T08:34:10;3.95;;;0.73;;
53545;SDS011;39432;51.902;10.844;2023-02-01T08:36:39;6.82;;;1.38;;
53545;SDS011;39432;51.902;10.844;2023-02-01T08:39:12;6.90;;;1.20;;
53545;SDS011;39432;51.902;10.844;2023-02-01T08:41:42;6.05;;;1.17;;
53545;SDS011;39432;51.902;10.844;2023-02-01T08:44:31;3.45;;;1.20;;
53545;SDS011;39432;51.902;10.844;2023-02-01T08:47:01;9.75;;;1.58;;
53545;SDS011;39432;51.902;10.844;2023-02-01T08:49:31;7.90;;;1.92;;
53545;SDS011;39432;51.902;10.844;2023-02-01T08:52:01;8.38;;;1.70;;
53545;SDS011;39432;51.902;10.844;2023-02-01T08:54:43;7.93;;;1.60;;
53545;SDS011;39432;51.902;10.844;2023-02-01T08:57:13;6.88;;;1.38;;
53545;SDS011;39432;51.902;10.844;2023-02-01T08:59:42;8.40;;;1.60;;
53545;SDS011;39432;51.902;10.844;2023-02-01T09:02:12;10.02;;;1.48;;
53545;SDS011;39432;51.902;10.844;2023-02-01T09:04:43;8.65;;;1.90;;
53545;SDS011;39432;51.902;10.844;2023-02-01T09:07:12;8.88;;;2.00;;
53545;SDS011;39432;51.902;10.844;2023-02-01T09:09:45;6.38;;;1.67;;
53545;SDS011;39432;51.902;10.844;2023-02-01T09:12:15;8.48;;;1.77;;
53545;SDS011;39432;51.902;10.844;2023-02-01T09:14:45;10.75;;;1.60;;
53545;SDS011;39432;51.902;10.844;2023-02-01T09:17:15;10.30;;;2.25;;
53545;SDS011;39432;51.902;10.844;2023-02-01T09:19:44;10.60;;;1.50;;
53545;SDS011;39432;51.902;10.844;2023-02-01T09:22:14;12.07;;;1.80;;
53545;SDS011;39432;51.902;10.844;2023-02-01T09:24:46;7.07;;;1.73;;
53545;SDS011;39432;51.902;10.844;2023-02-01T09:27:16;6.63;;;1.73;;
53545;SDS011;39432;51.902;10.844;2023-02-01T09:29:45;6.53;;;2.05;;
53545;SDS011;39432;51.902;10.844;2023-02-01T09:32:18;15.32;;;2.50;;
53545;SDS011;39432;51.902;10.844;2023-02-01T09:34:48;8.95;;;2.05;;
53545;SDS011;39432;51.902;10.844;2023-02-01T09:37:18;14.57;;;2.05;;
53545;SDS011;39432;51.902;10.844;2023-02-01T09:39:51;12.10;;;2.28;;
53545;SDS011;39432;51.902;10.844;2023-02-01T09:42:24;10.95;;;1.70;;
53545;SDS011;39432;51.902;10.844;2023-02-01T09:45:10;11.50;;;2.15;;
53545;SDS011;39432;51.902;10.844;2023-02-01T09:47:48;9.27;;;2.20;;
53545;SDS011;39432;51.902;10.844;2023-02-01T09:50:25;11.80;;;2.25;;
53545;SDS011;39432;51.902;10.844;2023-02-01T09:53:01;12.77;;;2.28;;
53545;SDS011;39432;51.902;10.844;2023-02-01T09:55:38;7.47;;;1.45;;
53545;SDS011;39432;51.902;10.844;2023-02-01T09:58:13;11.55;;;1.90;;
53545;SDS011;39432;51.902;10.844;2023-02-01T10:00:47;7.47;;;1.85;;
53545;SDS011;39432;51.902;10.844;2023-02-01T10:03:20;6.00;;;1.42;;
53545;SDS011;39432;51.902;10.844;2023-02-01T10:06:06;8.30;;;1.80;;
53545;SDS011;39432;51.902;10.844;2023-02-01T10:09:03;12.02;;;2.03;;
53545;SDS011;39432;51.902;10.844;2023-02-01T10:11:57;7.90;;;2.03;;
53545;SDS011;39432;51.902;10.844;2023-02-01T10:14:46;11.65;;;1.90;;
53545;SDS011;39432;51.902;10.844;2023-02-01T10:17:29;10.23;;;1.83;;
53545;SDS011;39432;51.902;10.844;2023-02-01T10:20:16;6.45;;;1.40;;
53545;SDS011;39432;51.902;10.844;2023-02-01T10:22:54;4.45;;;1.40;;
53545;SDS011;39432;51.902;10.844;2023-02-01T10:25:58;9.45;;;1.67;;
53545;SDS011;39432;51.902;10.844;2023-02-01T10:28:40;9.75;;;1.63;;
53545;SDS011;39432;51.902;10.844;2023-02-01T10:31:13;6.10;;;1.50;;
53545;SDS011;39432;51.902;10.844;2023-02-01T10:33:44;13.38;;;2.08;;
53545;SDS011;39432;51.902;10.844;2023-02-01T10:36:16;8.85;;;1.77;;
53545;SDS011;39432;51.902;10.844;2023-02-01T10:38:51;11.90;;;1.93;;
53545;SDS011;39432;51.902;10.844;2023-02-01T10:41:21;6.53;;;1.45;;
53545;SDS011;39432;51.902;10.844;2023-02-01T10:43:55;13.35;;;1.80;;
53545;SDS011;39432;51.902;10.844;2023-02-01T10:46:27;4.55;;;1.30;;
53545;SDS011;39432;51.902;10.844;2023-02-01T10:48:58;8.40;;;1.67;;
53545;SDS011;39432;51.902;10.844;2023-02-01T10:51:36;11.48;;;1.85;;
53545;SDS011;39432;51.902;10.844;2023-02-01T10:54:14;7.38;;;1.20;;
53545;SDS011;39432;51.902;10.844;2023-02-01T10:56:47;11.70;;;2.03;;
53545;SDS011;39432;51.902;10.844;2023-02-01T10:59:23;8.30;;;1.55;;
53545;SDS011;39432;51.902;10.844;2023-02-01T11:01:58;11.90;;;2.38;;
53545;SDS011;39432;51.902;10.844;2023-02-01T11:07:06;7.50;;;1.48;;
53545;SDS011;39432;51.902;10.844;2023-02-01T11:09:38;5.30;;;1.35;;
53545;SDS011;39432;51.902;10.844;2023-02-01T11:12:20;10.68;;;1.85;;
53545;SDS011;39432;51.902;10.844;2023-02-01T11:14:59;10.65;;;1.60;;
53545;SDS011;39432;51.902;10.844;2023-02-01T11:17:33;9.30;;;1.95;;
53545;SDS011;39432;51.902;10.844;2023-02-01T11:20:05;11.52;;;2.38;;
53545;SDS011;39432;51.902;10.844;2023-02-01T11:22:47;10.02;;;2.25;;
53545;SDS011;39432;51.902;10.844;2023-02-01T11:25:18;12.35;;;1.67;;
53545;SDS011;39432;51.902;10.844;2023-02-01T11:27:49;7.28;;;1.70;;
53545;SDS011;39432;51.902;10.844;2023-02-01T11:30:27;8.40;;;1.63;;
53545;SDS011;39432;51.902;10.844;2023-02-01T11:33:02;11.55;;;1.40;;
53545;SDS011;39432;51.902;10.844;2023-02-01T11:35:34;7.97;;;2.05;;
53545;SDS011;39432;51.902;10.844;2023-02-01T11:38:11;7.82;;;1.60;;
53545;SDS011;39432;51.902;10.844;2023-02-01T11:40:45;7.32;;;1.70;;
53545;SDS011;39432;51.902;10.844;2023-02-01T11:43:15;7.30;;;1.73;;
53545;SDS011;39432;51.902;10.844;2023-02-01T11:45:58;11.13;;;1.70;;
53545;SDS011;39432;51.902;10.844;2023-02-01T11:48:29;12.10;;;1.65;;
53545;SDS011;39432;51.902;10.844;2023-02-01T11:51:15;7.05;;;1.58;;
53545;SDS011;39432;51.902;10.844;2023-02-01T11:53:58;9.48;;;1.85;;
53545;SDS011;39432;51.902;10.844;2023-02-01T11:56:38;7.05;;;1.20;;
53545;SDS011;39432;51.902;10.844;2023-02-01T11:59:19;14.25;;;1.70;;
53545;SDS011;39432;51.902;10.844;2023-02-01T12:02:10;7.45;;;1.73;;
53545;SDS011;39432;51.902;10.844;2023-02-01T12:05:02;11.40;;;1.90;;
53545;SDS011;39432;51.902;10.844;2023-02-01T12:07:48;7.07;;;1.58;;
53545;SDS011;39432;51.902;10.844;2023-02-01T12:10:28;8.90;;;1.77;;
53545;SDS011;39432;51.902;10.844;2023-02-01T12:13:11;7.45;;;1.63;;
53545;SDS011;39432;51.902;10.844;2023-02-01T12:15:52;9.55;;;1.83;;
53545;SDS011;39432;51.902;10.844;2023-02-01T12:18:44;6.25;;;1.63;;
53545;SDS011;39432;51.902;10.844;2023-02-01T12:21:34;5.28;;;1.58;;
53545;SDS011;39432;51.902;10.844;2023-02-01T12:24:26;11.95;;;1.67;;
53545;SDS011;39432;51.902;10.844;2023-02-01T12:27:14;8.50;;;1.58;;
53545;SDS011;39432;51.902;10.844;2023-02-01T12:30:00;10.48;;;1.90;;
53545;SDS011;39432;51.902;10.844;2023-02-01T12:32:44;6.40;;;1.65;;
53545;SDS011;39432;51.902;10.844;2023-02-01T12:35:36;7.13;;;1.70;;
53545;SDS011;39432;51.902;10.844;2023-02-01T12:38:17;10.32;;;1.70;;
53545;SDS011;39432;51.902;10.844;2023-02-01T12:41:00;8.43;;;1.83;;
53545;SDS011;39432;51.902;10.844;2023-02-01T12:43:38;8.63;;;1.70;;
53545;SDS011;39432;51.902;10.844;2023-02-01T12:46:15;8.90;;;1.92;;
53545;SDS011;39432;51.902;10.844;2023-02-01T12:48:50;8.45;;;1.75;;
53545;SDS011;39432;51.902;10.844;2023-02-01T12:51:29;8.48;;;1.80;;
53545;SDS011;39432;51.902;10.844;2023-02-01T12:54:04;10.23;;;2.00;;
53545;SDS011;39432;51.902;10.844;2023-02-01T12:56:41;10.13;;;1.95;;
53545;SDS011;39432;51.902;10.844;2023-02-01T12:59:16;14.40;;;2.05;;
53545;SDS011;39432;51.902;10.844;2023-02-01T13:01:51;8.75;;;1.75;;
53545;SDS011;39432;51.902;10.844;2023-02-01T13:04:26;13.13;;;1.50;;
53545;SDS011;39432;51.902;10.844;2023-02-01T13:07:06;12.43;;;2.55;;
53545;SDS011;39432;51.902;10.844;2023-02-01T13:09:43;6.82;;;2.35;;
53545;SDS011;39432;51.902;10.844;2023-02-01T13:12:20;8.55;;;1.80;;
53545;SDS011;39432;51.902;10.844;2023-02-01T13:14:56;10.30;;;2.30;;
53545;SDS011;39432;51.902;10.844;2023-02-01T13:17:30;11.27;;;2.30;;
53545;SDS011;39432;51.902;10.844;2023-02-01T13:20:02;8.52;;;1.92;;
53545;SDS011;39432;51.902;10.844;2023-02-01T13:22:38;11.30;;;1.95;;
53545;SDS011;39432;51.902;10.844;2023-02-01T13:25:11;11.25;;;1.85;;
53545;SDS011;39432;51.902;10.844;2023-02-01T13:27:43;4.88;;;1.45;;
53545;SDS011;39432;51.902;10.844;2023-02-01T13:30:18;7.78;;;2.25;;
53545;SDS011;39432;51.902;10.844;2023-02-01T13:36:26;6.90;;;1.80;;
53545;SDS011;39432;51.902;10.844;2023-02-01T13:42:13;8.68;;;2.15;;
53545;SDS011;39432;51.902;10.844;2023-02-01T13:44:45;5.07;;;1.65;;
53545;SDS011;39432;51.902;10.844;2023-02-01T13:47:24;7.13;;;1.52;;
53545;SDS011;39432;51.902;10.844;2023-02-01T13:49:57;6.40;;;1.35;;
53545;SDS011;39432;51.902;10.844;2023-02-01T13:52:33;10.25;;;2.03;;
53545;SDS011;39432;51.902;10.844;2023-02-01T13:55:23;8.95;;;2.00;;
53545;SDS011;39432;51.902;10.844;2023-02-01T13:58:04;6.57;;;1.77;;
53545;SDS011;39432;51.902;10.844;2023-02-01T14:00:39;5.25;;;1.70;;
53545;SDS011;39432;51.902;10.844;2023-02-01T14:03:14;5.25;;;1.70;;
53545;SDS011;39432;51.902;10.844;2023-02-01T14:08:46;5.55;;;1.73;;
53545;SDS011;39432;51.902;10.844;2023-02-01T14:11:44;5.72;;;1.33;;
53545;SDS011;39432;51.902;10.844;2023-02-01T14:23:27;4.90;;;1.30;;
53545;SDS011;39432;51.902;10.844;2023-02-01T14:26:11;2.65;;;1.30;;
53545;SDS011;39432;51.902;10.844;2023-02-01T14:28:49;3.63;;;1.58;;
53545;SDS011;39432;51.902;10.844;2023-02-01T14:31:33;4.75;;;1.50;;
53545;SDS011;39432;51.902;10.844;2023-02-01T14:34:17;2.30;;;1.30;;
53545;SDS011;39432;51.902;10.844;2023-02-01T14:36:50;4.15;;;1.25;;
53545;SDS011;39432;51.902;10.844;2023-02-01T14:39:46;3.45;;;1.50;;
53545;SDS011;39432;51.902;10.844;2023-02-01T14:42:23;4.15;;;1.40;;
53545;SDS011;39432;51.902;10.844;2023-02-01T14:51:02;1.00;;;0.35;;
53545;SDS011;39432;51.902;10.844;2023-02-01T14:53:35;2.55;;;0.38;;
53545;SDS011;39432;51.902;10.844;2023-02-01T14:56:07;1.05;;;0.30;;
53545;SDS011;39432;51.902;10.844;2023-02-01T14:58:40;2.08;;;0.30;;
53545;SDS011;39432;51.902;10.844;2023-02-01T15:01:20;0.90;;;0.20;;
53545;SDS011;39432;51.902;10.844;2023-02-01T15:04:01;1.10;;;0.30;;
53545;SDS011;39432;51.902;10.844;2023-02-01T15:06:36;0.95;;;0.20;;
53545;SDS011;39432;51.902;10.844;2023-02-01T15:09:08;1.48;;;0.40;;
53545;SDS011;39432;51.902;10.844;2023-02-01T15:14:30;0.85;;;0.20;;
53545;SDS011;39432;51.902;10.844;2023-02-01T15:17:15;0.22;;;0.13;;
53545;SDS011;39432;51.902;10.844;2023-02-01T15:19:54;0.08;;;0.08;;
53545;SDS011;39432;51.902;10.844;2023-02-01T15:22:25;0.20;;;0.10;;
53545;SDS011;39432;51.902;10.844;2023-02-01T15:24:57;0.10;;;0.10;;
53545;SDS011;39432;51.902;10.844;2023-02-01T15:27:28;1.10;;;0.20;;
53545;SDS011;39432;51.902;10.844;2023-02-01T15:30:04;2.17;;;0.20;;
53545;SDS011;39432;51.902;10.844;2023-02-01T15:32:38;5.82;;;0.80;;
53545;SDS011;39432;51.902;10.844;2023-02-01T15:41:01;1.13;;;0.32;;
53545;SDS011;39432;51.902;10.844;2023-02-01T15:43:34;5.20;;;1.10;;
53545;SDS011;39432;51.902;10.844;2023-02-01T15:46:07;4.45;;;0.68;;
53545;SDS011;39432;51.902;10.844;2023-02-01T15:48:42;1.90;;;0.77;;
53545;SDS011;39432;51.902;10.844;2023-02-01T15:51:15;1.70;;;0.30;;
53545;SDS011;39432;51.902;10.844;2023-02-01T15:53:48;3.78;;;0.57;;
53545;SDS011;39432;51.902;10.844;2023-02-01T15:56:21;1.98;;;0.20;;
53545;SDS011;39432;51.902;10.844;2023-02-01T15:58:58;1.75;;;0.20;;